sensor_id;sensor_type;location;lat;lon;timestamp;temperature;humidity
16441;DHT22;8330;-33.858;151.184;2023-03-01T00:02:21;26.80;99.90
16441;DHT22;8330;-33.858;151.184;2023-03-01T00:04:53;26.90;99.90
16441;DHT22;8330;-33.858;151.184;2023-03-01T00:07:26;27.00;99.90
16441;DHT22;8330;-33.858;151.184;2023-03-01T00:09:57;27.10;99.90
16441;DHT22;8330;-33.858;151.184;2023-03-01T00:12:28;27.20;99.90
16441;DHT22;8330;-33.858;151.184;2023-03-01T00:14:59;27.10;99.90
16441;DHT22;8330;-33.858;151.184;2023-03-01T00:17:31;27.20;99.90
16441;DHT22;8330;-33.858;151.184;2023-03-01T00:20:02;27.20;99.90
16441;DHT22;8330;-33.858;151.184;2023-03-01T00:22:37;27.20;99.90
16441;DHT22;8330;-33.858;151.184;2023-03-01T00:25:09;27.20;99.90
16441;DHT22;8330;-33.858;151.184;2023-03-01T00:27:40;27.30;99.90
16441;DHT22;8330;-33.858;151.184;2023-03-01T00:30:11;27.30;99.90
16441;DHT22;8330;-33.858;151.184;2023-03-01T00:32:43;27.40;99.90
16441;DHT22;8330;-33.858;151.184;2023-03-01T00:35:14;27.40;99.90
16441;DHT22;8330;-33.858;151.184;2023-03-01T00:37:47;27.50;99.90
16441;DHT22;8330;-33.858;151.184;2023-03-01T00:40:21;27.50;99.90
16441;DHT22;8330;-33.858;151.184;2023-03-01T00:42:52;27.60;99.90
16441;DHT22;8330;-33.858;151.184;2023-03-01T00:45:23;27.60;99.90
16441;DHT22;8330;-33.858;151.184;2023-03-01T00:47:56;27.70;99.90
16441;DHT22;8330;-33.858;151.184;2023-03-01T00:50:28;27.70;99.90
16441;DHT22;8330;-33.858;151.184;2023-03-01T00:53:01;27.70;99.90
16441;DHT22;8330;-33.858;151.184;2023-03-01T00:55:33;27.70;99.90
16441;DHT22;8330;-33.858;151.184;2023-03-01T00:58:04;27.80;99.90
16441;DHT22;8330;-33.858;151.184;2023-03-01T01:00:35;27.80;99.90
16441;DHT22;8330;-33.858;151.184;2023-03-01T01:03:06;27.80;99.90
16441;DHT22;8330;-33.858;151.184;2023-03-01T01:05:38;27.90;99.90
16441;DHT22;8330;-33.858;151.184;2023-03-01T01:08:11;27.80;99.90
16441;DHT22;8330;-33.858;151.184;2023-03-01T01:10:44;27.70;99.90
16441;DHT22;8330;-33.858;151.184;2023-03-01T01:13:15;27.70;99.90
16441;DHT22;8330;-33.858;151.184;2023-03-01T01:15:46;27.80;99.90
16441;DHT22;8330;-33.858;151.184;2023-03-01T01:18:17;27.70;99.90
16441;DHT22;8330;-33.858;151.184;2023-03-01T01:20:48;27.70;99.90
16441;DHT22;8330;-33.858;151.184;2023-03-01T01:23:21;27.60;99.90
16441;DHT22;8330;-33.858;151.184;2023-03-01T01:25:53;27.60;99.90
16441;DHT22;8330;-33.858;151.184;2023-03-01T01:28:24;27.60;99.90
16441;DHT22;8330;-33.858;151.184;2023-03-01T01:30:55;27.60;99.90
16441;DHT22;8330;-33.858;151.184;2023-03-01T01:33:26;27.60;99.90
16441;DHT22;8330;-33.858;151.184;2023-03-01T01:35:57;27.60;99.90
16441;DHT22;8330;-33.858;151.184;2023-03-01T01:38:30;27.60;99.90
16441;DHT22;8330;-33.858;151.184;2023-03-01T01:41:01;27.50;99.90
16441;DHT22;8330;-33.858;151.184;2023-03-01T01:43:35;27.60;99.90
16441;DHT22;8330;-33.858;151.184;2023-03-01T01:46:16;27.60;99.90
16441;DHT22;8330;-33.858;151.184;2023-03-01T01:48:50;27.70;99.90
16441;DHT22;8330;-33.858;151.184;2023-03-01T01:51:35;27.60;99.90
16441;DHT22;8330;-33.858;151.184;2023-03-01T01:54:12;27.60;99.90
16441;DHT22;8330;-33.858;151.184;2023-03-01T01:56:48;27.50;99.90
16441;DHT22;8330;-33.858;151.184;2023-03-01T01:59:21;27.60;99.90
16441;DHT22;8330;-33.858;151.184;2023-03-01T02:01:54;27.60;99.90
16441;DHT22;8330;-33.858;151.184;2023-03-01T02:04:25;27.60;99.90
16441;DHT22;8330;-33.858;151.184;2023-03-01T02:07:00;27.60;99.90
16441;DHT22;8330;-33.858;151.184;2023-03-01T02:09:34;27.70;99.90
16441;DHT22;8330;-33.858;151.184;2023-03-01T02:12:07;27.70;99.90
16441;DHT22;8330;-33.858;151.184;2023-03-01T02:14:39;27.80;99.90
16441;DHT22;8330;-33.858;151.184;2023-03-01T02:17:11;27.80;99.90
16441;DHT22;8330;-33.858;151.184;2023-03-01T02:19:54;27.80;99.90
16441;DHT22;8330;-33.858;151.184;2023-03-01T02:22:35;27.70;99.90
16441;DHT22;8330;-33.858;151.184;2023-03-01T02:25:27;27.60;99.90
16441;DHT22;8330;-33.858;151.184;2023-03-01T02:28:01;27.70;99.90
16441;DHT22;8330;-33.858;151.184;2023-03-01T02:30:38;27.80;99.90
16441;DHT22;8330;-33.858;151.184;2023-03-01T02:33:31;28.00;99.90
16441;DHT22;8330;-33.858;151.184;2023-03-01T02:36:01;28.10;99.90
16441;DHT22;8330;-33.858;151.184;2023-03-01T02:38:34;28.20;99.90
16441;DHT22;8330;-33.858;151.184;2023-03-01T02:41:06;28.20;99.90
16441;DHT22;8330;-33.858;151.184;2023-03-01T02:43:37;28.30;99.90
16441;DHT22;8330;-33.858;151.184;2023-03-01T02:46:16;28.30;99.90
16441;DHT22;8330;-33.858;151.184;2023-03-01T02:48:48;28.10;99.90
16441;DHT22;8330;-33.858;151.184;2023-03-01T02:51:41;28.00;99.90
16441;DHT22;8330;-33.858;151.184;2023-03-01T02:54:19;27.90;99.90
16441;DHT22;8330;-33.858;151.184;2023-03-01T02:56:53;27.90;99.90
16441;DHT22;8330;-33.858;151.184;2023-03-01T02:59:28;27.90;99.90
16441;DHT22;8330;-33.858;151.184;2023-03-01T03:02:04;27.90;99.90
16441;DHT22;8330;-33.858;151.184;2023-03-01T03:04:35;28.00;99.90
16441;DHT22;8330;-33.858;151.184;2023-03-01T03:07:06;28.00;99.90
16441;DHT22;8330;-33.858;151.184;2023-03-01T03:09:37;28.00;99.90
16441;DHT22;8330;-33.858;151.184;2023-03-01T03:12:08;28.20;99.90
16441;DHT22;8330;-33.858;151.184;2023-03-01T03:14:39;28.30;99.90
16441;DHT22;8330;-33.858;151.184;2023-03-01T03:17:12;28.50;99.90
16441;DHT22;8330;-33.858;151.184;2023-03-01T03:19:44;28.60;99.90
16441;DHT22;8330;-33.858;151.184;2023-03-01T03:22:15;28.60;99.90
16441;DHT22;8330;-33.858;151.184;2023-03-01T03:24:46;28.80;99.90
16441;DHT22;8330;-33.858;151.184;2023-03-01T03:27:18;28.90;99.90
16441;DHT22;8330;-33.858;151.184;2023-03-01T03:29:49;29.00;99.90
16441;DHT22;8330;-33.858;151.184;2023-03-01T03:32:23;28.80;99.90
16441;DHT22;8330;-33.858;151.184;2023-03-01T03:34:55;28.70;99.90
16441;DHT22;8330;-33.858;151.184;2023-03-01T03:37:27;28.70;99.90
16441;DHT22;8330;-33.858;151.184;2023-03-01T03:40:14;28.70;99.90
16441;DHT22;8330;-33.858;151.184;2023-03-01T03:42:45;28.70;99.90
16441;DHT22;8330;-33.858;151.184;2023-03-01T03:45:16;28.60;99.90
16441;DHT22;8330;-33.858;151.184;2023-03-01T03:47:52;28.40;99.90
16441;DHT22;8330;-33.858;151.184;2023-03-01T03:50:23;28.30;99.90
16441;DHT22;8330;-33.858;151.184;2023-03-01T03:52:54;28.10;99.90
16441;DHT22;8330;-33.858;151.184;2023-03-01T03:55:25;27.90;99.90
16441;DHT22;8330;-33.858;151.184;2023-03-01T03:57:59;27.80;99.90
16441;DHT22;8330;-33.858;151.184;2023-03-01T04:00:35;27.80;99.90
16441;DHT22;8330;-33.858;151.184;2023-03-01T04:03:09;27.80;99.90
16441;DHT22;8330;-33.858;151.184;2023-03-01T04:05:41;27.80;99.90
16441;DHT22;8330;-33.858;151.184;2023-03-01T04:08:12;28.00;99.90
16441;DHT22;8330;-33.858;151.184;2023-03-01T04:10:45;28.00;99.90
16441;DHT22;8330;-33.858;151.184;2023-03-01T04:13:18;28.00;99.90
16441;DHT22;8330;-33.858;151.184;2023-03-01T04:15:50;27.80;99.90
16441;DHT22;8330;-33.858;151.184;2023-03-01T04:18:24;27.60;99.90
16441;DHT22;8330;-33.858;151.184;2023-03-01T04:20:55;27.40;99.90
16441;DHT22;8330;-33.858;151.184;2023-03-01T04:23:26;27.30;99.90
16441;DHT22;8330;-33.858;151.184;2023-03-01T04:25:58;27.40;99.90
16441;DHT22;8330;-33.858;151.184;2023-03-01T04:28:33;27.30;99.90
16441;DHT22;8330;-33.858;151.184;2023-03-01T04:31:06;27.40;99.90
16441;DHT22;8330;-33.858;151.184;2023-03-01T04:33:43;27.50;99.90
16441;DHT22;8330;-33.858;151.184;2023-03-01T04:36:16;27.40;99.90
16441;DHT22;8330;-33.858;151.184;2023-03-01T04:38:47;27.30;99.90
16441;DHT22;8330;-33.858;151.184;2023-03-01T04:41:19;27.50;99.90
16441;DHT22;8330;-33.858;151.184;2023-03-01T04:43:50;27.50;99.90
16441;DHT22;8330;-33.858;151.184;2023-03-01T04:46:22;27.40;99.90
16441;DHT22;8330;-33.858;151.184;2023-03-01T04:48:55;27.20;99.90
16441;DHT22;8330;-33.858;151.184;2023-03-01T04:51:26;27.10;99.90
16441;DHT22;8330;-33.858;151.184;2023-03-01T04:53:57;27.10;99.90
16441;DHT22;8330;-33.858;151.184;2023-03-01T04:56:28;27.00;99.90
16441;DHT22;8330;-33.858;151.184;2023-03-01T04:58:59;27.10;99.90
16441;DHT22;8330;-33.858;151.184;2023-03-01T05:01:33;27.10;99.90
16441;DHT22;8330;-33.858;151.184;2023-03-01T05:04:07;27.10;99.90
16441;DHT22;8330;-33.858;151.184;2023-03-01T05:06:41;27.00;99.90
16441;DHT22;8330;-33.858;151.184;2023-03-01T05:09:12;27.10;99.90
16441;DHT22;8330;-33.858;151.184;2023-03-01T05:11:43;27.10;99.90
16441;DHT22;8330;-33.858;151.184;2023-03-01T05:14:14;27.00;99.90
16441;DHT22;8330;-33.858;151.184;2023-03-01T05:16:45;27.00;99.90
16441;DHT22;8330;-33.858;151.184;2023-03-01T05:19:18;27.10;99.90
16441;DHT22;8330;-33.858;151.184;2023-03-01T05:21:50;27.10;99.90
16441;DHT22;8330;-33.858;151.184;2023-03-01T05:24:34;27.10;99.90
16441;DHT22;8330;-33.858;151.184;2023-03-01T05:27:07;27.10;99.90
16441;DHT22;8330;-33.858;151.184;2023-03-01T05:29:39;27.00;99.90
16441;DHT22;8330;-33.858;151.184;2023-03-01T05:32:10;27.00;99.90
16441;DHT22;8330;-33.858;151.184;2023-03-01T05:34:45;27.10;99.90
16441;DHT22;8330;-33.858;151.184;2023-03-01T05:37:16;27.30;99.90
16441;DHT22;8330;-33.858;151.184;2023-03-01T05:39:47;27.40;99.90
16441;DHT22;8330;-33.858;151.184;2023-03-01T05:42:19;27.50;99.90
16441;DHT22;8330;-33.858;151.184;2023-03-01T05:44:50;27.50;99.90
16441;DHT22;8330;-33.858;151.184;2023-03-01T05:47:21;27.40;99.90
16441;DHT22;8330;-33.858;151.184;2023-03-01T05:49:54;27.50;99.90
16441;DHT22;8330;-33.858;151.184;2023-03-01T05:52:25;27.50;99.90
16441;DHT22;8330;-33.858;151.184;2023-03-01T05:54:58;27.30;99.90
16441;DHT22;8330;-33.858;151.184;2023-03-01T05:57:30;27.30;99.90
16441;DHT22;8330;-33.858;151.184;2023-03-01T06:00:01;27.30;99.90
16441;DHT22;8330;-33.858;151.184;2023-03-01T06:02:34;27.40;99.90
16441;DHT22;8330;-33.858;151.184;2023-03-01T06:05:09;27.70;99.90
16441;DHT22;8330;-33.858;151.184;2023-03-01T06:07:40;27.70;99.90
16441;DHT22;8330;-33.858;151.184;2023-03-01T06:10:13;27.80;99.90
16441;DHT22;8330;-33.858;151.184;2023-03-01T06:12:44;27.80;99.90
16441;DHT22;8330;-33.858;151.184;2023-03-01T06:15:16;27.90;99.90
16441;DHT22;8330;-33.858;151.184;2023-03-01T06:17:47;28.20;99.90
16441;DHT22;8330;-33.858;151.184;2023-03-01T06:20:22;28.20;99.90
16441;DHT22;8330;-33.858;151.184;2023-03-01T06:22:53;28.20;99.90
16441;DHT22;8330;-33.858;151.184;2023-03-01T06:25:26;28.30;99.90
16441;DHT22;8330;-33.858;151.184;2023-03-01T06:27:58;28.30;99.90
16441;DHT22;8330;-33.858;151.184;2023-03-01T06:30:29;28.50;99.90
16441;DHT22;8330;-33.858;151.184;2023-03-01T06:33:01;28.60;99.90
16441;DHT22;8330;-33.858;151.184;2023-03-01T06:35:35;28.70;99.90
16441;DHT22;8330;-33.858;151.184;2023-03-01T06:38:08;28.60;99.90
16441;DHT22;8330;-33.858;151.184;2023-03-01T06:40:40;28.70;99.90
16441;DHT22;8330;-33.858;151.184;2023-03-01T06:43:11;28.50;99.90
16441;DHT22;8330;-33.858;151.184;2023-03-01T06:45:42;28.60;99.90
16441;DHT22;8330;-33.858;151.184;2023-03-01T06:48:15;28.70;99.90
16441;DHT22;8330;-33.858;151.184;2023-03-01T06:50:48;28.80;99.90
16441;DHT22;8330;-33.858;151.184;2023-03-01T06:53:19;28.80;99.90
16441;DHT22;8330;-33.858;151.184;2023-03-01T06:55:55;28.90;99.90
16441;DHT22;8330;-33.858;151.184;2023-03-01T06:58:27;28.90;99.90
16441;DHT22;8330;-33.858;151.184;2023-03-01T07:00:58;29.00;99.90
16441;DHT22;8330;-33.858;151.184;2023-03-01T07:03:29;28.70;99.90
16441;DHT22;8330;-33.858;151.184;2023-03-01T07:06:02;28.80;99.90
16441;DHT22;8330;-33.858;151.184;2023-03-01T07:08:34;29.10;99.90
16441;DHT22;8330;-33.858;151.184;2023-03-01T07:11:05;29.30;99.90
16441;DHT22;8330;-33.858;151.184;2023-03-01T07:13:36;29.60;99.90
16441;DHT22;8330;-33.858;151.184;2023-03-01T07:16:07;29.60;99.90
16441;DHT22;8330;-33.858;151.184;2023-03-01T07:18:38;30.00;99.90
16441;DHT22;8330;-33.858;151.184;2023-03-01T07:21:13;30.20;99.90
16441;DHT22;8330;-33.858;151.184;2023-03-01T07:23:47;30.30;99.90
16441;DHT22;8330;-33.858;151.184;2023-03-01T07:26:18;30.30;99.90
16441;DHT22;8330;-33.858;151.184;2023-03-01T07:28:49;30.00;99.90
16441;DHT22;8330;-33.858;151.184;2023-03-01T07:31:20;30.10;99.90
16441;DHT22;8330;-33.858;151.184;2023-03-01T07:33:51;29.80;99.90
16441;DHT22;8330;-33.858;151.184;2023-03-01T07:36:24;29.60;99.90
16441;DHT22;8330;-33.858;151.184;2023-03-01T07:38:55;29.30;99.90
16441;DHT22;8330;-33.858;151.184;2023-03-01T07:41:27;29.10;99.90
16441;DHT22;8330;-33.858;151.184;2023-03-01T07:43:58;29.00;99.90
16441;DHT22;8330;-33.858;151.184;2023-03-01T07:46:29;28.80;99.90
16441;DHT22;8330;-33.858;151.184;2023-03-01T07:49:00;28.50;99.90
16441;DHT22;8330;-33.858;151.184;2023-03-01T07:51:33;28.30;99.90
16441;DHT22;8330;-33.858;151.184;2023-03-01T07:54:04;28.10;99.90
16441;DHT22;8330;-33.858;151.184;2023-03-01T07:56:35;27.80;99.90
16441;DHT22;8330;-33.858;151.184;2023-03-01T07:59:06;27.50;99.90
16441;DHT22;8330;-33.858;151.184;2023-03-01T08:01:39;27.20;99.90
16441;DHT22;8330;-33.858;151.184;2023-03-01T08:04:10;26.90;99.90
16441;DHT22;8330;-33.858;151.184;2023-03-01T08:06:43;26.80;99.90
16441;DHT22;8330;-33.858;151.184;2023-03-01T08:09:14;26.60;99.90
16441;DHT22;8330;-33.858;151.184;2023-03-01T08:11:46;26.60;99.90
16441;DHT22;8330;-33.858;151.184;2023-03-01T08:14:20;26.40;99.90
16441;DHT22;8330;-33.858;151.184;2023-03-01T08:16:51;26.20;99.90
16441;DHT22;8330;-33.858;151.184;2023-03-01T08:19:23;26.20;99.90
16441;DHT22;8330;-33.858;151.184;2023-03-01T08:21:57;26.10;99.90
16441;DHT22;8330;-33.858;151.184;2023-03-01T08:24:29;25.90;99.90
16441;DHT22;8330;-33.858;151.184;2023-03-01T08:27:00;25.80;99.90
16441;DHT22;8330;-33.858;151.184;2023-03-01T08:29:32;25.80;99.90
16441;DHT22;8330;-33.858;151.184;2023-03-01T08:32:04;25.70;99.90
16441;DHT22;8330;-33.858;151.184;2023-03-01T08:34:35;25.70;99.90
16441;DHT22;8330;-33.858;151.184;2023-03-01T08:37:09;25.70;99.90
16441;DHT22;8330;-33.858;151.184;2023-03-01T08:39:40;25.70;99.90
16441;DHT22;8330;-33.858;151.184;2023-03-01T08:42:11;25.60;99.90
16441;DHT22;8330;-33.858;151.184;2023-03-01T08:44:42;25.60;99.90
16441;DHT22;8330;-33.858;151.184;2023-03-01T08:47:13;25.60;99.90
16441;DHT22;8330;-33.858;151.184;2023-03-01T08:49:44;25.60;99.90
16441;DHT22;8330;-33.858;151.184;2023-03-01T08:52:17;25.60;99.90
16441;DHT22;8330;-33.858;151.184;2023-03-01T08:54:49;25.50;99.90
16441;DHT22;8330;-33.858;151.184;2023-03-01T08:57:20;25.40;99.90
16441;DHT22;8330;-33.858;151.184;2023-03-01T08:59:52;25.40;99.90
16441;DHT22;8330;-33.858;151.184;2023-03-01T09:02:24;25.40;99.90
16441;DHT22;8330;-33.858;151.184;2023-03-01T09:04:55;25.40;99.90
16441;DHT22;8330;-33.858;151.184;2023-03-01T09:07:28;25.40;99.90
16441;DHT22;8330;-33.858;151.184;2023-03-01T09:09:59;25.50;99.90
16441;DHT22;8330;-33.858;151.184;2023-03-01T09:12:33;25.50;99.90
16441;DHT22;8330;-33.858;151.184;2023-03-01T09:15:05;25.50;99.90
16441;DHT22;8330;-33.858;151.184;2023-03-01T09:17:37;25.50;99.90
16441;DHT22;8330;-33.858;151.184;2023-03-01T09:20:08;25.50;99.90
16441;DHT22;8330;-33.858;151.184;2023-03-01T09:22:42;25.40;99.90
16441;DHT22;8330;-33.858;151.184;2023-03-01T09:25:14;25.50;99.90
16441;DHT22;8330;-33.858;151.184;2023-03-01T09:27:45;25.50;99.90
16441;DHT22;8330;-33.858;151.184;2023-03-01T09:30:23;25.40;99.90
16441;DHT22;8330;-33.858;151.184;2023-03-01T09:32:55;25.40;99.90
16441;DHT22;8330;-33.858;151.184;2023-03-01T09:35:29;25.40;99.90
16441;DHT22;8330;-33.858;151.184;2023-03-01T09:38:04;25.40;99.90
16441;DHT22;8330;-33.858;151.184;2023-03-01T09:40:35;25.40;99.90
16441;DHT22;8330;-33.858;151.184;2023-03-01T09:43:20;25.50;99.90
16441;DHT22;8330;-33.858;151.184;2023-03-01T09:45:54;25.50;99.90
16441;DHT22;8330;-33.858;151.184;2023-03-01T09:48:28;25.40;99.90
16441;DHT22;8330;-33.858;151.184;2023-03-01T09:51:02;25.40;99.90
16441;DHT22;8330;-33.858;151.184;2023-03-01T09:53:39;25.30;99.90
16441;DHT22;8330;-33.858;151.184;2023-03-01T09:56:16;25.30;99.90
16441;DHT22;8330;-33.858;151.184;2023-03-01T09:58:53;25.40;99.90
16441;DHT22;8330;-33.858;151.184;2023-03-01T10:01:31;25.30;99.90
16441;DHT22;8330;-33.858;151.184;2023-03-01T10:04:28;25.30;99.90
16441;DHT22;8330;-33.858;151.184;2023-03-01T10:07:22;25.30;99.90
16441;DHT22;8330;-33.858;151.184;2023-03-01T10:09:59;25.20;99.90
16441;DHT22;8330;-33.858;151.184;2023-03-01T10:12:37;25.30;99.90
16441;DHT22;8330;-33.858;151.184;2023-03-01T10:15:16;25.30;99.90
16441;DHT22;8330;-33.858;151.184;2023-03-01T10:17:51;25.30;99.90
16441;DHT22;8330;-33.858;151.184;2023-03-01T10:20:25;25.20;99.90
16441;DHT22;8330;-33.858;151.184;2023-03-01T10:22:56;25.30;99.90
16441;DHT22;8330;-33.858;151.184;2023-03-01T10:25:47;25.20;99.90
16441;DHT22;8330;-33.858;151.184;2023-03-01T10:28:28;25.20;99.90
16441;DHT22;8330;-33.858;151.184;2023-03-01T10:31:01;25.30;99.90
16441;DHT22;8330;-33.858;151.184;2023-03-01T10:33:38;25.40;99.90
16441;DHT22;8330;-33.858;151.184;2023-03-01T10:36:10;25.40;99.90
16441;DHT22;8330;-33.858;151.184;2023-03-01T10:38:51;25.40;99.90
16441;DHT22;8330;-33.858;151.184;2023-03-01T10:41:25;25.40;99.90
16441;DHT22;8330;-33.858;151.184;2023-03-01T10:43:58;25.30;99.90
16441;DHT22;8330;-33.858;151.184;2023-03-01T10:46:31;25.30;99.90
16441;DHT22;8330;-33.858;151.184;2023-03-01T10:49:14;25.30;99.90
16441;DHT22;8330;-33.858;151.184;2023-03-01T10:51:47;25.30;99.90
16441;DHT22;8330;-33.858;151.184;2023-03-01T10:54:19;25.30;99.90
16441;DHT22;8330;-33.858;151.184;2023-03-01T10:56:55;25.30;99.90
16441;DHT22;8330;-33.858;151.184;2023-03-01T10:59:31;25.20;99.90
16441;DHT22;8330;-33.858;151.184;2023-03-01T11:02:16;25.20;99.90
16441;DHT22;8330;-33.858;151.184;2023-03-01T11:05:03;25.20;99.90
16441;DHT22;8330;-33.858;151.184;2023-03-01T11:07:48;25.10;99.90
16441;DHT22;8330;-33.858;151.184;2023-03-01T11:10:21;24.90;99.90
16441;DHT22;8330;-33.858;151.184;2023-03-01T11:13:08;24.90;99.90
16441;DHT22;8330;-33.858;151.184;2023-03-01T11:15:39;24.80;99.90
16441;DHT22;8330;-33.858;151.184;2023-03-01T11:18:22;24.80;99.90
16441;DHT22;8330;-33.858;151.184;2023-03-01T11:20:55;24.70;99.90
16441;DHT22;8330;-33.858;151.184;2023-03-01T11:23:29;24.70;99.90
16441;DHT22;8330;-33.858;151.184;2023-03-01T11:26:04;24.70;99.90
16441;DHT22;8330;-33.858;151.184;2023-03-01T11:28:39;24.70;99.90
16441;DHT22;8330;-33.858;151.184;2023-03-01T11:31:12;24.70;99.90
16441;DHT22;8330;-33.858;151.184;2023-03-01T11:33:47;24.70;99.90
16441;DHT22;8330;-33.858;151.184;2023-03-01T11:36:26;24.70;99.90
16441;DHT22;8330;-33.858;151.184;2023-03-01T11:39:04;24.70;99.90
16441;DHT22;8330;-33.858;151.184;2023-03-01T11:41:37;24.80;99.90
16441;DHT22;8330;-33.858;151.184;2023-03-01T11:44:16;24.80;99.90
16441;DHT22;8330;-33.858;151.184;2023-03-01T11:47:07;24.80;99.90
16441;DHT22;8330;-33.858;151.184;2023-03-01T11:52:45;24.80;99.90
16441;DHT22;8330;-33.858;151.184;2023-03-01T11:55:32;24.80;99.90
16441;DHT22;8330;-33.858;151.184;2023-03-01T11:58:17;24.80;99.90
16441;DHT22;8330;-33.858;151.184;2023-03-01T12:01:21;24.80;99.90
16441;DHT22;8330;-33.858;151.184;2023-03-01T12:04:14;24.80;99.90
16441;DHT22;8330;-33.858;151.184;2023-03-01T12:06:57;24.80;99.90
16441;DHT22;8330;-33.858;151.184;2023-03-01T12:09:54;24.80;99.90
16441;DHT22;8330;-33.858;151.184;2023-03-01T12:12:34;24.80;99.90
16441;DHT22;8330;-33.858;151.184;2023-03-01T12:15:27;24.80;99.90
16441;DHT22;8330;-33.858;151.184;2023-03-01T12:18:25;24.80;99.90
16441;DHT22;8330;-33.858;151.184;2023-03-01T12:21:05;24.80;99.90
16441;DHT22;8330;-33.858;151.184;2023-03-01T12:24:08;24.80;99.90
16441;DHT22;8330;-33.858;151.184;2023-03-01T12:26:46;24.70;99.90
16441;DHT22;8330;-33.858;151.184;2023-03-01T12:29:26;24.70;99.90
16441;DHT22;8330;-33.858;151.184;2023-03-01T12:32:21;24.70;99.90
16441;DHT22;8330;-33.858;151.184;2023-03-01T12:35:09;24.70;99.90
16441;DHT22;8330;-33.858;151.184;2023-03-01T12:37:52;24.70;99.90
16441;DHT22;8330;-33.858;151.184;2023-03-01T12:40:40;24.80;99.90
16441;DHT22;8330;-33.858;151.184;2023-03-01T12:43:22;24.80;99.90
16441;DHT22;8330;-33.858;151.184;2023-03-01T12:46:10;24.70;99.90
16441;DHT22;8330;-33.858;151.184;2023-03-01T12:48:58;24.70;99.90
16441;DHT22;8330;-33.858;151.184;2023-03-01T12:51:35;24.70;99.90
16441;DHT22;8330;-33.858;151.184;2023-03-01T12:54:15;24.70;99.90
16441;DHT22;8330;-33.858;151.184;2023-03-01T12:56:47;24.70;99.90
16441;DHT22;8330;-33.858;151.184;2023-03-01T12:59:24;24.70;99.90
16441;DHT22;8330;-33.858;151.184;2023-03-01T13:02:04;24.70;99.90
16441;DHT22;8330;-33.858;151.184;2023-03-01T13:04:53;24.70;99.90
16441;DHT22;8330;-33.858;151.184;2023-03-01T13:07:37;24.70;99.90
16441;DHT22;8330;-33.858;151.184;2023-03-01T13:10:24;24.70;99.90
16441;DHT22;8330;-33.858;151.184;2023-03-01T13:13:12;24.60;99.90
16441;DHT22;8330;-33.858;151.184;2023-03-01T13:15:44;24.70;99.90
16441;DHT22;8330;-33.858;151.184;2023-03-01T13:18:37;24.70;99.90
16441;DHT22;8330;-33.858;151.184;2023-03-01T13:21:08;24.60;99.90
16441;DHT22;8330;-33.858;151.184;2023-03-01T13:23:41;24.60;99.90
16441;DHT22;8330;-33.858;151.184;2023-03-01T13:26:18;24.60;99.90
16441;DHT22;8330;-33.858;151.184;2023-03-01T13:28:56;24.60;99.90
16441;DHT22;8330;-33.858;151.184;2023-03-01T13:32:01;24.60;99.90
16441;DHT22;8330;-33.858;151.184;2023-03-01T13:34:53;24.70;99.90
16441;DHT22;8330;-33.858;151.184;2023-03-01T13:37:27;24.70;99.90
16441;DHT22;8330;-33.858;151.184;2023-03-01T13:40:04;24.70;99.90
16441;DHT22;8330;-33.858;151.184;2023-03-01T13:42:41;24.70;99.90
16441;DHT22;8330;-33.858;151.184;2023-03-01T13:45:23;24.70;99.90
16441;DHT22;8330;-33.858;151.184;2023-03-01T13:47:58;24.70;99.90
16441;DHT22;8330;-33.858;151.184;2023-03-01T13:50:32;24.70;99.90
16441;DHT22;8330;-33.858;151.184;2023-03-01T13:53:05;24.70;99.90
16441;DHT22;8330;-33.858;151.184;2023-03-01T13:55:44;24.70;99.90
16441;DHT22;8330;-33.858;151.184;2023-03-01T13:58:21;24.70;99.90
16441;DHT22;8330;-33.858;151.184;2023-03-01T14:00:58;24.70;99.90
16441;DHT22;8330;-33.858;151.184;2023-03-01T14:03:40;24.70;99.90
16441;DHT22;8330;-33.858;151.184;2023-03-01T14:06:14;24.70;99.90
16441;DHT22;8330;-33.858;151.184;2023-03-01T14:08:46;24.70;99.90
16441;DHT22;8330;-33.858;151.184;2023-03-01T14:11:48;24.70;99.90
16441;DHT22;8330;-33.858;151.184;2023-03-01T14:14:52;24.70;99.90
16441;DHT22;8330;-33.858;151.184;2023-03-01T14:20:29;24.60;99.90
16441;DHT22;8330;-33.858;151.184;2023-03-01T14:23:02;24.60;99.90
16441;DHT22;8330;-33.858;151.184;2023-03-01T14:25:38;24.60;99.90
16441;DHT22;8330;-33.858;151.184;2023-03-01T14:28:20;24.50;99.90
16441;DHT22;8330;-33.858;151.184;2023-03-01T14:30:55;24.50;99.90
16441;DHT22;8330;-33.858;151.184;2023-03-01T14:33:31;24.50;99.90
16441;DHT22;8330;-33.858;151.184;2023-03-01T14:36:06;24.50;99.90
16441;DHT22;8330;-33.858;151.184;2023-03-01T14:38:38;24.50;99.90
16441;DHT22;8330;-33.858;151.184;2023-03-01T14:41:17;24.50;99.90
16441;DHT22;8330;-33.858;151.184;2023-03-01T14:43:52;24.50;99.90
16441;DHT22;8330;-33.858;151.184;2023-03-01T14:46:28;24.50;99.90
16441;DHT22;8330;-33.858;151.184;2023-03-01T14:49:04;24.40;99.90
16441;DHT22;8330;-33.858;151.184;2023-03-01T14:51:40;24.40;99.90
16441;DHT22;8330;-33.858;151.184;2023-03-01T14:54:21;24.30;99.90
16441;DHT22;8330;-33.858;151.184;2023-03-01T14:56:58;24.30;99.90
16441;DHT22;8330;-33.858;151.184;2023-03-01T14:59:32;24.30;99.90
16441;DHT22;8330;-33.858;151.184;2023-03-01T15:02:03;24.30;99.90
16441;DHT22;8330;-33.858;151.184;2023-03-01T15:04:34;24.20;99.90
16441;DHT22;8330;-33.858;151.184;2023-03-01T15:07:09;24.30;99.90
16441;DHT22;8330;-33.858;151.184;2023-03-01T15:09:42;24.20;99.90
16441;DHT22;8330;-33.858;151.184;2023-03-01T15:12:38;24.20;99.90
16441;DHT22;8330;-33.858;151.184;2023-03-01T15:15:34;24.10;99.90
16441;DHT22;8330;-33.858;151.184;2023-03-01T15:18:17;24.00;99.90
16441;DHT22;8330;-33.858;151.184;2023-03-01T15:20:48;24.00;99.90
16441;DHT22;8330;-33.858;151.184;2023-03-01T15:23:22;23.90;99.90
16441;DHT22;8330;-33.858;151.184;2023-03-01T15:25:55;23.90;99.90
16441;DHT22;8330;-33.858;151.184;2023-03-01T15:28:27;23.90;99.90
16441;DHT22;8330;-33.858;151.184;2023-03-01T15:31:04;23.90;99.90
16441;DHT22;8330;-33.858;151.184;2023-03-01T15:33:37;23.80;99.90
16441;DHT22;8330;-33.858;151.184;2023-03-01T15:36:41;23.80;99.90
16441;DHT22;8330;-33.858;151.184;2023-03-01T15:39:34;23.80;99.90
16441;DHT22;8330;-33.858;151.184;2023-03-01T15:42:06;23.80;99.90
16441;DHT22;8330;-33.858;151.184;2023-03-01T15:44:38;23.70;99.90
16441;DHT22;8330;-33.858;151.184;2023-03-01T15:47:29;23.70;99.90
16441;DHT22;8330;-33.858;151.184;2023-03-01T15:50:01;23.70;99.90
16441;DHT22;8330;-33.858;151.184;2023-03-01T15:52:40;23.70;99.90
16441;DHT22;8330;-33.858;151.184;2023-03-01T15:55:17;23.70;99.90
16441;DHT22;8330;-33.858;151.184;2023-03-01T15:57:49;23.70;99.90
16441;DHT22;8330;-33.858;151.184;2023-03-01T16:00:21;23.70;99.90